Sheng Jia 1 — XUGG7 — position and weather

sailwx.info

Track history (hours):
 
Tides and Currents Weather Stations Pressure Air Temp Water Temp Dewpoint Dewpoint Depression Visibility Wind Speed Wind Dir Waves Ship Positions

Sheng Jia 1

Last reported at 2015-Mar-30 08:29 UTC. Time now 2015-Apr-01 13:11 UTC.
Position N 33°58' E 130°26'.

Length 73 m; draft 3.2 m.

Type: Cargo ship. MMSI: 515744000.

Date/timePositionNaut miles runAvg speedWind from/ knotsBaromVisibWave heightAir tempDewpointWater temp
2015-Mar-30 08:29N 33°58' E 130°26'9 9.0
2015-Mar-30 07:33N 33°58' E 130°16'10 9.1
2015-Mar-30 06:27N 33°59' E 130°04'68 9.7
2015-Mar-29 23:25N 34°00' E 128°42'  
2015-Mar-24 07:34N 37°58' E 122°08'2210.1
2015-Mar-24 05:25N 37°46' E 122°30'32 9.6
2015-Mar-24 02:05N 37°19' E 122°53'1011.2
2015-Mar-24 01:10N 37°09' E 122°52'811.8
2015-Mar-24 00:27N 37°00' E 122°52'1211.6
2015-Mar-23 23:28N 36°49' E 122°53'271 9.5
2015-Mar-22 19:04N 32°18' E 122°38'710.8
2015-Mar-22 18:28N 32°11' E 122°37'1111.5
2015-Mar-22 17:33N 32°01' E 122°35'1211.7
2015-Mar-22 16:31N 31°49' E 122°34'1111.2
2015-Mar-22 15:32N 31°38' E 122°32'1111.6
2015-Mar-22 14:33N 31°27' E 122°33'10 9.6
2015-Mar-22 13:29N 31°16' E 122°34'9 9.3
2015-Mar-22 12:33N 31°08' E 122°34'8 8.0
2015-Mar-22 11:33N 30°60' E 122°33'8 7.9
2015-Mar-22 10:33N 30°53' E 122°28'1010.1
2015-Mar-22 09:32N 30°47' E 122°19'9 8.9
2015-Mar-22 08:33N 30°39' E 122°15'1010.2
2015-Mar-22 07:33N 30°31' E 122°08'1111.1
2015-Mar-22 06:33N 30°25' E 121°57'11 9.9
2015-Mar-22 05:26N 30°17' E 121°48'1112.0
2015-Mar-22 04:30N 30°06' E 121°48'7 0.3
2015-Mar-21 04:30N 29°59' E 121°47'2 1.4
2015-Mar-21 03:06N 30°01' E 121°46'0 0.0
2015-Mar-21 02:19N 30°01' E 121°46'0 0.0
2015-Mar-21 00:07N 30°01' E 121°46'0 0.0
2015-Mar-20 23:34N 30°01' E 121°46'6 5.7
2015-Mar-20 22:32N 30°06' E 121°48'1111.2
2015-Mar-20 21:32N 30°18' E 121°47'9 7.7
2015-Mar-20 20:22N 30°24' E 121°54'6 7.1
2015-Mar-20 19:33N 30°27' E 121°60'7 7.1
2015-Mar-20 18:33N 30°31' E 122°06'8 7.6
2015-Mar-20 17:33N 30°34' E 122°15'31 9.3
2015-Mar-20 14:11N 30°40' E 122°51'  
Track history (hours):
 
Tides and Currents Weather Stations Pressure Air Temp Water Temp Dewpoint Dewpoint Depression Visibility Wind Speed Wind Dir Waves Ship Positions

Sheng Jia 1

Last reported at 2015-Mar-30 08:29 UTC. Time now 2015-Apr-01 13:11 UTC.
Position N 33°58' E 130°26'.

Length 73 m; draft 3.2 m.

Type: Cargo ship. MMSI: 515744000.

Date/timePositionNaut miles runAvg speedWind from/ knotsBaromVisibWave heightAir tempDewpointWater temp
2015-Mar-30 08:29N 33°58' E 130°26'9 9.0
2015-Mar-30 07:33N 33°58' E 130°16'10 9.1
2015-Mar-30 06:27N 33°59' E 130°04'68 9.7
2015-Mar-29 23:25N 34°00' E 128°42'  
2015-Mar-24 07:34N 37°58' E 122°08'2210.1
2015-Mar-24 05:25N 37°46' E 122°30'32 9.6
2015-Mar-24 02:05N 37°19' E 122°53'1011.2
2015-Mar-24 01:10N 37°09' E 122°52'811.8
2015-Mar-24 00:27N 37°00' E 122°52'1211.6
2015-Mar-23 23:28N 36°49' E 122°53'271 9.5
2015-Mar-22 19:04N 32°18' E 122°38'710.8
2015-Mar-22 18:28N 32°11' E 122°37'1111.5
2015-Mar-22 17:33N 32°01' E 122°35'1211.7
2015-Mar-22 16:31N 31°49' E 122°34'1111.2
2015-Mar-22 15:32N 31°38' E 122°32'1111.6
2015-Mar-22 14:33N 31°27' E 122°33'10 9.6
2015-Mar-22 13:29N 31°16' E 122°34'9 9.3
2015-Mar-22 12:33N 31°08' E 122°34'8 8.0
2015-Mar-22 11:33N 30°60' E 122°33'8 7.9
2015-Mar-22 10:33N 30°53' E 122°28'1010.1
2015-Mar-22 09:32N 30°47' E 122°19'9 8.9
2015-Mar-22 08:33N 30°39' E 122°15'1010.2
2015-Mar-22 07:33N 30°31' E 122°08'1111.1
2015-Mar-22 06:33N 30°25' E 121°57'11 9.9
2015-Mar-22 05:26N 30°17' E 121°48'1112.0
2015-Mar-22 04:30N 30°06' E 121°48'7 0.3
2015-Mar-21 04:30N 29°59' E 121°47'2 1.4
2015-Mar-21 03:06N 30°01' E 121°46'0 0.0
2015-Mar-21 02:19N 30°01' E 121°46'0 0.0
2015-Mar-21 00:07N 30°01' E 121°46'0 0.0
2015-Mar-20 23:34N 30°01' E 121°46'6 5.7
2015-Mar-20 22:32N 30°06' E 121°48'1111.2
2015-Mar-20 21:32N 30°18' E 121°47'9 7.7
2015-Mar-20 20:22N 30°24' E 121°54'6 7.1
2015-Mar-20 19:33N 30°27' E 121°60'7 7.1
2015-Mar-20 18:33N 30°31' E 122°06'8 7.6
2015-Mar-20 17:33N 30°34' E 122°15'31 9.3
2015-Mar-20 14:11N 30°40' E 122°51'  

Dump ship's entire track history